sensor_id;sensor_type;location;lat;lon;timestamp;temperature;humidity
42095;DHT22;27753;55.724;37.612;2022-09-06T01:44:52;9.50;90.30
42095;DHT22;27753;55.724;37.612;2022-09-06T01:50:37;9.20;90.00
42095;DHT22;27753;55.724;37.612;2022-09-06T02:06:59;9.20;89.10
42095;DHT22;27753;55.724;37.612;2022-09-06T02:09:30;9.20;88.70
42095;DHT22;27753;55.724;37.612;2022-09-06T02:12:00;9.20;88.60
42095;DHT22;27753;55.724;37.612;2022-09-06T02:15:13;9.10;88.70
42095;DHT22;27753;55.724;37.612;2022-09-06T02:17:22;9.20;88.80
42095;DHT22;27753;55.724;37.612;2022-09-06T02:20:00;9.10;88.80
42095;DHT22;27753;55.724;37.612;2022-09-06T02:22:29;9.10;88.80
42095;DHT22;27753;55.724;37.612;2022-09-06T02:24:58;9.10;88.80
42095;DHT22;27753;55.724;37.612;2022-09-06T02:27:25;9.10;89.10
42095;DHT22;27753;55.724;37.612;2022-09-06T02:29:51;9.10;89.20
42095;DHT22;27753;55.724;37.612;2022-09-06T02:32:22;9.10;89.00
42095;DHT22;27753;55.724;37.612;2022-09-06T02:34:50;9.10;89.00
42095;DHT22;27753;55.724;37.612;2022-09-06T02:37:17;9.00;89.10
42095;DHT22;27753;55.724;37.612;2022-09-06T02:39:43;9.00;89.40
42095;DHT22;27753;55.724;37.612;2022-09-06T02:42:11;9.00;89.60
42095;DHT22;27753;55.724;37.612;2022-09-06T02:44:37;9.00;89.40
42095;DHT22;27753;55.724;37.612;2022-09-06T02:47:03;9.00;89.40
42095;DHT22;27753;55.724;37.612;2022-09-06T02:49:30;9.00;89.40
42095;DHT22;27753;55.724;37.612;2022-09-06T02:51:56;8.90;89.30
42095;DHT22;27753;55.724;37.612;2022-09-06T02:54:22;8.90;89.30
42095;DHT22;27753;55.724;37.612;2022-09-06T02:56:48;9.00;89.60
42095;DHT22;27753;55.724;37.612;2022-09-06T02:59:14;9.00;89.40
42095;DHT22;27753;55.724;37.612;2022-09-06T03:01:40;9.00;89.40
42095;DHT22;27753;55.724;37.612;2022-09-06T03:04:07;9.00;89.30
42095;DHT22;27753;55.724;37.612;2022-09-06T03:06:33;9.00;89.30
42095;DHT22;27753;55.724;37.612;2022-09-06T03:08:59;9.00;89.30
42095;DHT22;27753;55.724;37.612;2022-09-06T03:11:25;9.10;89.30
42095;DHT22;27753;55.724;37.612;2022-09-06T03:13:51;9.10;89.00
42095;DHT22;27753;55.724;37.612;2022-09-06T03:16:18;9.10;88.40
42095;DHT22;27753;55.724;37.612;2022-09-06T03:18:44;9.20;88.30
42095;DHT22;27753;55.724;37.612;2022-09-06T03:21:10;9.20;88.40
42095;DHT22;27753;55.724;37.612;2022-09-06T03:23:36;9.10;87.90
42095;DHT22;27753;55.724;37.612;2022-09-06T03:26:05;9.10;87.90
42095;DHT22;27753;55.724;37.612;2022-09-06T03:28:36;9.10;87.90
42095;DHT22;27753;55.724;37.612;2022-09-06T03:31:03;9.20;87.90
42095;DHT22;27753;55.724;37.612;2022-09-06T03:33:28;9.20;88.60
42095;DHT22;27753;55.724;37.612;2022-09-06T03:35:58;9.20;88.00
42095;DHT22;27753;55.724;37.612;2022-09-06T03:38:25;9.20;87.90
42095;DHT22;27753;55.724;37.612;2022-09-06T03:40:52;9.30;87.90
42095;DHT22;27753;55.724;37.612;2022-09-06T03:43:18;9.30;88.00
42095;DHT22;27753;55.724;37.612;2022-09-06T03:45:49;9.30;88.60
42095;DHT22;27753;55.724;37.612;2022-09-06T03:48:16;9.20;88.30
42095;DHT22;27753;55.724;37.612;2022-09-06T03:50:46;9.10;88.80
42095;DHT22;27753;55.724;37.612;2022-09-06T03:53:13;9.00;89.80
42095;DHT22;27753;55.724;37.612;2022-09-06T03:55:42;8.90;90.10
42095;DHT22;27753;55.724;37.612;2022-09-06T03:58:08;8.80;90.40
42095;DHT22;27753;55.724;37.612;2022-09-06T04:00:34;8.80;90.50
42095;DHT22;27753;55.724;37.612;2022-09-06T04:03:00;8.70;90.60
42095;DHT22;27753;55.724;37.612;2022-09-06T04:05:25;8.70;90.70
42095;DHT22;27753;55.724;37.612;2022-09-06T04:07:51;8.70;90.60
42095;DHT22;27753;55.724;37.612;2022-09-06T04:10:17;8.80;90.70
42095;DHT22;27753;55.724;37.612;2022-09-06T04:12:43;8.90;90.60
42095;DHT22;27753;55.724;37.612;2022-09-06T04:15:09;9.00;90.30
42095;DHT22;27753;55.724;37.612;2022-09-06T04:17:35;9.10;90.20
42095;DHT22;27753;55.724;37.612;2022-09-06T04:20:02;9.10;89.70
42095;DHT22;27753;55.724;37.612;2022-09-06T04:22:30;9.20;89.00
42095;DHT22;27753;55.724;37.612;2022-09-06T04:24:56;9.10;89.20
42095;DHT22;27753;55.724;37.612;2022-09-06T04:27:22;9.20;89.30
42095;DHT22;27753;55.724;37.612;2022-09-06T04:29:48;9.20;89.70
42095;DHT22;27753;55.724;37.612;2022-09-06T04:32:14;9.20;90.00
42095;DHT22;27753;55.724;37.612;2022-09-06T04:34:40;9.20;90.20
42095;DHT22;27753;55.724;37.612;2022-09-06T04:37:06;9.20;90.10
42095;DHT22;27753;55.724;37.612;2022-09-06T04:39:32;9.20;90.30
42095;DHT22;27753;55.724;37.612;2022-09-06T04:41:58;9.20;90.10
42095;DHT22;27753;55.724;37.612;2022-09-06T04:44:23;9.20;90.10
42095;DHT22;27753;55.724;37.612;2022-09-06T04:46:49;9.30;90.20
42095;DHT22;27753;55.724;37.612;2022-09-06T04:49:15;9.40;89.60
42095;DHT22;27753;55.724;37.612;2022-09-06T04:51:41;9.50;89.40
42095;DHT22;27753;55.724;37.612;2022-09-06T04:54:07;9.60;89.00
42095;DHT22;27753;55.724;37.612;2022-09-06T04:56:32;9.60;89.40
42095;DHT22;27753;55.724;37.612;2022-09-06T04:58:58;9.70;89.60
42095;DHT22;27753;55.724;37.612;2022-09-06T05:01:24;9.80;89.40
42095;DHT22;27753;55.724;37.612;2022-09-06T05:03:52;9.70;87.60
42095;DHT22;27753;55.724;37.612;2022-09-06T05:06:20;9.50;87.90
42095;DHT22;27753;55.724;37.612;2022-09-06T05:08:48;9.50;88.30
42095;DHT22;27753;55.724;37.612;2022-09-06T05:11:14;9.50;88.50
42095;DHT22;27753;55.724;37.612;2022-09-06T05:13:40;9.60;88.50
42095;DHT22;27753;55.724;37.612;2022-09-06T05:16:08;9.60;87.20
42095;DHT22;27753;55.724;37.612;2022-09-06T05:18:34;9.60;86.80
42095;DHT22;27753;55.724;37.612;2022-09-06T05:21:00;9.70;86.70
42095;DHT22;27753;55.724;37.612;2022-09-06T05:23:26;9.70;86.60
42095;DHT22;27753;55.724;37.612;2022-09-06T05:25:52;9.90;86.50
42095;DHT22;27753;55.724;37.612;2022-09-06T05:28:18;9.90;85.60
42095;DHT22;27753;55.724;37.612;2022-09-06T05:30:46;10.00;85.80
42095;DHT22;27753;55.724;37.612;2022-09-06T05:33:13;10.20;84.50
42095;DHT22;27753;55.724;37.612;2022-09-06T05:35:43;10.20;83.60
42095;DHT22;27753;55.724;37.612;2022-09-06T05:38:09;10.20;83.30
42095;DHT22;27753;55.724;37.612;2022-09-06T05:40:35;10.20;83.60
42095;DHT22;27753;55.724;37.612;2022-09-06T05:43:01;10.30;83.40
42095;DHT22;27753;55.724;37.612;2022-09-06T05:45:26;10.30;83.30
42095;DHT22;27753;55.724;37.612;2022-09-06T05:47:52;10.30;82.30
42095;DHT22;27753;55.724;37.612;2022-09-06T05:50:18;10.20;82.20
42095;DHT22;27753;55.724;37.612;2022-09-06T05:52:44;10.20;82.40
42095;DHT22;27753;55.724;37.612;2022-09-06T05:55:11;10.10;81.90
42095;DHT22;27753;55.724;37.612;2022-09-06T05:57:37;10.10;82.40
42095;DHT22;27753;55.724;37.612;2022-09-06T06:00:04;10.10;82.50
42095;DHT22;27753;55.724;37.612;2022-09-06T06:02:32;10.10;82.60
42095;DHT22;27753;55.724;37.612;2022-09-06T06:04:58;10.20;82.20
42095;DHT22;27753;55.724;37.612;2022-09-06T06:07:24;10.20;82.20
42095;DHT22;27753;55.724;37.612;2022-09-06T06:09:50;10.30;82.20
42095;DHT22;27753;55.724;37.612;2022-09-06T06:12:15;10.40;81.50
42095;DHT22;27753;55.724;37.612;2022-09-06T06:14:44;10.40;81.30
42095;DHT22;27753;55.724;37.612;2022-09-06T06:17:10;10.50;81.20
42095;DHT22;27753;55.724;37.612;2022-09-06T06:19:36;10.50;80.90
42095;DHT22;27753;55.724;37.612;2022-09-06T06:22:02;10.60;79.80
42095;DHT22;27753;55.724;37.612;2022-09-06T06:24:27;10.70;78.70
42095;DHT22;27753;55.724;37.612;2022-09-06T06:26:53;10.80;78.80
42095;DHT22;27753;55.724;37.612;2022-09-06T06:29:19;10.90;78.30
42095;DHT22;27753;55.724;37.612;2022-09-06T06:31:45;11.00;77.80
42095;DHT22;27753;55.724;37.612;2022-09-06T06:34:11;11.00;77.40
42095;DHT22;27753;55.724;37.612;2022-09-06T06:36:37;11.10;77.60
42095;DHT22;27753;55.724;37.612;2022-09-06T06:39:05;11.80;77.20
42095;DHT22;27753;55.724;37.612;2022-09-06T06:41:32;12.40;74.60
42095;DHT22;27753;55.724;37.612;2022-09-06T06:44:02;12.40;72.80
42095;DHT22;27753;55.724;37.612;2022-09-06T06:46:33;12.20;73.10
42095;DHT22;27753;55.724;37.612;2022-09-06T06:48:59;12.00;73.90
42095;DHT22;27753;55.724;37.612;2022-09-06T06:51:28;11.70;73.90
42095;DHT22;27753;55.724;37.612;2022-09-06T06:53:54;11.40;75.00
42095;DHT22;27753;55.724;37.612;2022-09-06T06:56:28;11.00;76.90
42095;DHT22;27753;55.724;37.612;2022-09-06T06:58:57;10.70;78.10
42095;DHT22;27753;55.724;37.612;2022-09-06T07:01:24;10.70;79.30
42095;DHT22;27753;55.724;37.612;2022-09-06T07:03:51;10.70;79.40
42095;DHT22;27753;55.724;37.612;2022-09-06T07:06:18;10.80;78.80
42095;DHT22;27753;55.724;37.612;2022-09-06T07:08:45;11.00;78.10
42095;DHT22;27753;55.724;37.612;2022-09-06T07:11:12;11.20;76.80
42095;DHT22;27753;55.724;37.612;2022-09-06T07:13:39;11.20;76.40
42095;DHT22;27753;55.724;37.612;2022-09-06T07:16:06;11.10;76.30
42095;DHT22;27753;55.724;37.612;2022-09-06T07:18:34;11.90;76.70
42095;DHT22;27753;55.724;37.612;2022-09-06T07:21:03;13.10;71.00
42095;DHT22;27753;55.724;37.612;2022-09-06T07:23:31;13.70;69.10
42095;DHT22;27753;55.724;37.612;2022-09-06T07:26:00;14.10;66.20
42095;DHT22;27753;55.724;37.612;2022-09-06T07:28:30;13.70;64.40
42095;DHT22;27753;55.724;37.612;2022-09-06T07:30:57;13.10;67.20
42095;DHT22;27753;55.724;37.612;2022-09-06T07:33:24;13.00;68.50
42095;DHT22;27753;55.724;37.612;2022-09-06T07:36:02;13.40;66.90
42095;DHT22;27753;55.724;37.612;2022-09-06T07:38:32;13.70;65.00
42095;DHT22;27753;55.724;37.612;2022-09-06T17:12:45;14.20;64.50
42095;DHT22;27753;55.724;37.612;2022-09-06T17:15:14;10.20;77.40
42095;DHT22;27753;55.724;37.612;2022-09-06T17:17:40;10.10;78.10
42095;DHT22;27753;55.724;37.612;2022-09-06T17:20:07;10.10;78.90
42095;DHT22;27753;55.724;37.612;2022-09-06T17:22:34;10.20;79.60
42095;DHT22;27753;55.724;37.612;2022-09-06T17:25:03;10.20;80.10
42095;DHT22;27753;55.724;37.612;2022-09-06T17:27:30;10.20;80.60
42095;DHT22;27753;55.724;37.612;2022-09-06T17:29:56;10.20;80.70
42095;DHT22;27753;55.724;37.612;2022-09-06T17:32:21;10.30;81.00
42095;DHT22;27753;55.724;37.612;2022-09-06T17:34:47;10.30;81.10
42095;DHT22;27753;55.724;37.612;2022-09-06T17:37:13;10.30;80.90
42095;DHT22;27753;55.724;37.612;2022-09-06T17:39:39;10.30;81.00
42095;DHT22;27753;55.724;37.612;2022-09-06T17:42:06;10.30;81.10
42095;DHT22;27753;55.724;37.612;2022-09-06T17:44:32;10.40;81.20
42095;DHT22;27753;55.724;37.612;2022-09-06T17:46:58;10.40;81.40
42095;DHT22;27753;55.724;37.612;2022-09-06T17:49:24;10.40;81.10
42095;DHT22;27753;55.724;37.612;2022-09-06T17:51:52;10.40;81.30
42095;DHT22;27753;55.724;37.612;2022-09-06T17:54:18;10.40;81.10
42095;DHT22;27753;55.724;37.612;2022-09-06T17:56:44;10.40;80.70
42095;DHT22;27753;55.724;37.612;2022-09-06T17:59:13;10.40;80.50
42095;DHT22;27753;55.724;37.612;2022-09-06T18:01:41;10.40;80.30
42095;DHT22;27753;55.724;37.612;2022-09-06T18:04:08;10.40;79.70
42095;DHT22;27753;55.724;37.612;2022-09-06T18:06:37;10.40;79.50
42095;DHT22;27753;55.724;37.612;2022-09-06T18:09:11;10.30;79.40
42095;DHT22;27753;55.724;37.612;2022-09-06T18:11:42;10.30;79.60
42095;DHT22;27753;55.724;37.612;2022-09-06T18:14:14;10.30;79.90
42095;DHT22;27753;55.724;37.612;2022-09-06T18:16:42;10.30;79.80
42095;DHT22;27753;55.724;37.612;2022-09-06T18:19:15;10.30;79.70
42095;DHT22;27753;55.724;37.612;2022-09-06T18:21:43;10.30;79.60
42095;DHT22;27753;55.724;37.612;2022-09-06T18:24:09;10.30;79.30
42095;DHT22;27753;55.724;37.612;2022-09-06T18:26:38;10.30;79.20
42095;DHT22;27753;55.724;37.612;2022-09-06T18:29:05;10.20;79.00
42095;DHT22;27753;55.724;37.612;2022-09-06T18:31:36;10.20;79.20
42095;DHT22;27753;55.724;37.612;2022-09-06T18:34:03;10.20;79.30
42095;DHT22;27753;55.724;37.612;2022-09-06T18:36:29;10.20;79.00
42095;DHT22;27753;55.724;37.612;2022-09-06T18:38:55;10.20;78.90
42095;DHT22;27753;55.724;37.612;2022-09-06T18:41:24;10.20;78.80
42095;DHT22;27753;55.724;37.612;2022-09-06T18:44:08;10.20;78.80
42095;DHT22;27753;55.724;37.612;2022-09-06T18:46:35;10.10;78.90
42095;DHT22;27753;55.724;37.612;2022-09-06T18:49:03;10.00;79.80
42095;DHT22;27753;55.724;37.612;2022-09-06T18:51:31;10.00;80.10
42095;DHT22;27753;55.724;37.612;2022-09-06T18:53:57;10.00;79.80
42095;DHT22;27753;55.724;37.612;2022-09-06T18:56:24;9.90;79.60
42095;DHT22;27753;55.724;37.612;2022-09-06T18:58:58;9.90;80.60
42095;DHT22;27753;55.724;37.612;2022-09-06T19:01:26;9.90;80.00
42095;DHT22;27753;55.724;37.612;2022-09-06T19:03:56;9.90;80.10
42095;DHT22;27753;55.724;37.612;2022-09-06T19:06:30;10.00;79.80
42095;DHT22;27753;55.724;37.612;2022-09-06T19:09:01;9.90;79.60
42095;DHT22;27753;55.724;37.612;2022-09-06T19:11:28;9.90;79.70
42095;DHT22;27753;55.724;37.612;2022-09-06T19:13:55;9.90;79.60
42095;DHT22;27753;55.724;37.612;2022-09-06T19:16:22;9.90;79.40
42095;DHT22;27753;55.724;37.612;2022-09-06T19:18:49;9.90;79.60
42095;DHT22;27753;55.724;37.612;2022-09-06T19:21:17;9.90;79.70
42095;DHT22;27753;55.724;37.612;2022-09-06T19:23:56;9.90;79.60
42095;DHT22;27753;55.724;37.612;2022-09-06T19:26:24;9.90;79.50
42095;DHT22;27753;55.724;37.612;2022-09-06T19:29:02;9.80;79.50
42095;DHT22;27753;55.724;37.612;2022-09-06T19:31:30;9.80;79.70
42095;DHT22;27753;55.724;37.612;2022-09-06T19:33:57;9.80;79.90
42095;DHT22;27753;55.724;37.612;2022-09-06T19:36:24;9.70;79.70
42095;DHT22;27753;55.724;37.612;2022-09-06T19:38:54;9.70;79.50
42095;DHT22;27753;55.724;37.612;2022-09-06T19:41:20;9.70;79.50
42095;DHT22;27753;55.724;37.612;2022-09-06T19:43:49;9.60;79.80
42095;DHT22;27753;55.724;37.612;2022-09-06T19:46:16;9.60;80.00
42095;DHT22;27753;55.724;37.612;2022-09-06T19:48:47;9.60;80.00
42095;DHT22;27753;55.724;37.612;2022-09-06T19:51:14;9.70;80.00
42095;DHT22;27753;55.724;37.612;2022-09-06T19:53:41;9.70;80.00
42095;DHT22;27753;55.724;37.612;2022-09-06T19:56:12;9.60;79.90
42095;DHT22;27753;55.724;37.612;2022-09-06T19:58:40;9.60;79.90
42095;DHT22;27753;55.724;37.612;2022-09-06T20:01:06;9.60;79.80
42095;DHT22;27753;55.724;37.612;2022-09-06T20:03:36;9.60;80.10
42095;DHT22;27753;55.724;37.612;2022-09-06T20:06:04;9.60;80.10
42095;DHT22;27753;55.724;37.612;2022-09-06T20:08:32;9.60;79.80
42095;DHT22;27753;55.724;37.612;2022-09-06T20:10:59;9.60;79.70
42095;DHT22;27753;55.724;37.612;2022-09-06T20:13:26;9.60;79.20
42095;DHT22;27753;55.724;37.612;2022-09-06T20:15:53;9.60;79.20
42095;DHT22;27753;55.724;37.612;2022-09-06T20:18:20;9.60;79.20
42095;DHT22;27753;55.724;37.612;2022-09-06T20:20:51;9.70;78.90
42095;DHT22;27753;55.724;37.612;2022-09-06T20:23:17;9.60;79.00
42095;DHT22;27753;55.724;37.612;2022-09-06T20:25:43;9.60;79.00
42095;DHT22;27753;55.724;37.612;2022-09-06T20:28:09;9.60;79.20
42095;DHT22;27753;55.724;37.612;2022-09-06T20:30:41;9.50;79.60
42095;DHT22;27753;55.724;37.612;2022-09-06T20:33:07;9.50;80.30
42095;DHT22;27753;55.724;37.612;2022-09-06T20:35:33;9.40;80.40
42095;DHT22;27753;55.724;37.612;2022-09-06T20:37:59;9.40;80.80
42095;DHT22;27753;55.724;37.612;2022-09-06T20:40:25;9.30;80.60
42095;DHT22;27753;55.724;37.612;2022-09-06T20:42:51;9.40;80.60
42095;DHT22;27753;55.724;37.612;2022-09-06T20:45:19;9.40;80.90
42095;DHT22;27753;55.724;37.612;2022-09-06T20:47:47;9.40;79.90
42095;DHT22;27753;55.724;37.612;2022-09-06T20:50:13;9.40;80.00
42095;DHT22;27753;55.724;37.612;2022-09-06T20:52:39;9.40;79.90
42095;DHT22;27753;55.724;37.612;2022-09-06T20:55:05;9.40;79.90
42095;DHT22;27753;55.724;37.612;2022-09-06T20:57:31;9.40;79.80
42095;DHT22;27753;55.724;37.612;2022-09-06T20:59:57;9.30;79.70
42095;DHT22;27753;55.724;37.612;2022-09-06T21:02:23;9.30;79.90
42095;DHT22;27753;55.724;37.612;2022-09-06T21:04:49;9.30;79.80
42095;DHT22;27753;55.724;37.612;2022-09-06T21:07:15;9.30;79.90
42095;DHT22;27753;55.724;37.612;2022-09-06T21:09:40;9.30;79.90
42095;DHT22;27753;55.724;37.612;2022-09-06T21:12:06;9.30;79.90
42095;DHT22;27753;55.724;37.612;2022-09-06T21:14:32;9.40;80.00
42095;DHT22;27753;55.724;37.612;2022-09-06T21:16:58;9.30;79.90
42095;DHT22;27753;55.724;37.612;2022-09-06T21:19:24;9.40;79.90
42095;DHT22;27753;55.724;37.612;2022-09-06T21:21:50;9.40;79.90
42095;DHT22;27753;55.724;37.612;2022-09-06T21:24:16;9.40;79.80
42095;DHT22;27753;55.724;37.612;2022-09-06T21:26:42;9.30;79.60
42095;DHT22;27753;55.724;37.612;2022-09-06T21:29:08;9.30;79.70
42095;DHT22;27753;55.724;37.612;2022-09-06T21:31:35;9.40;79.70
42095;DHT22;27753;55.724;37.612;2022-09-06T21:34:04;9.30;79.70
42095;DHT22;27753;55.724;37.612;2022-09-06T21:36:36;9.40;79.70
42095;DHT22;27753;55.724;37.612;2022-09-06T21:39:05;9.30;79.70
42095;DHT22;27753;55.724;37.612;2022-09-06T21:41:31;9.30;79.70
42095;DHT22;27753;55.724;37.612;2022-09-06T21:44:00;9.30;79.80
42095;DHT22;27753;55.724;37.612;2022-09-06T21:46:28;9.30;80.00
42095;DHT22;27753;55.724;37.612;2022-09-06T21:48:56;9.30;79.70
42095;DHT22;27753;55.724;37.612;2022-09-06T21:51:24;9.20;79.50
42095;DHT22;27753;55.724;37.612;2022-09-06T21:53:52;9.20;79.60
42095;DHT22;27753;55.724;37.612;2022-09-06T21:56:18;9.20;79.90
42095;DHT22;27753;55.724;37.612;2022-09-06T21:58:48;9.20;79.90
42095;DHT22;27753;55.724;37.612;2022-09-06T22:01:14;9.20;80.10
42095;DHT22;27753;55.724;37.612;2022-09-06T22:03:40;9.20;80.10
42095;DHT22;27753;55.724;37.612;2022-09-06T22:06:17;9.10;80.20
42095;DHT22;27753;55.724;37.612;2022-09-06T22:08:45;9.10;80.40
42095;DHT22;27753;55.724;37.612;2022-09-06T22:11:17;9.10;80.60
42095;DHT22;27753;55.724;37.612;2022-09-06T22:13:44;9.10;80.80
42095;DHT22;27753;55.724;37.612;2022-09-06T22:16:11;9.10;80.90
42095;DHT22;27753;55.724;37.612;2022-09-06T22:18:38;9.10;80.90
42095;DHT22;27753;55.724;37.612;2022-09-06T22:21:09;9.10;81.10
42095;DHT22;27753;55.724;37.612;2022-09-06T22:23:35;9.10;81.40
42095;DHT22;27753;55.724;37.612;2022-09-06T22:26:07;9.10;81.50
42095;DHT22;27753;55.724;37.612;2022-09-06T22:28:33;9.10;81.60
42095;DHT22;27753;55.724;37.612;2022-09-06T22:31:00;9.10;81.50
42095;DHT22;27753;55.724;37.612;2022-09-06T22:33:26;9.10;81.70
42095;DHT22;27753;55.724;37.612;2022-09-06T22:35:52;9.10;81.80
42095;DHT22;27753;55.724;37.612;2022-09-06T22:38:18;9.10;81.90
42095;DHT22;27753;55.724;37.612;2022-09-06T22:40:47;9.00;82.00
42095;DHT22;27753;55.724;37.612;2022-09-06T22:43:14;9.10;82.30
42095;DHT22;27753;55.724;37.612;2022-09-06T22:45:40;9.10;82.30
42095;DHT22;27753;55.724;37.612;2022-09-06T22:48:08;9.00;82.30
42095;DHT22;27753;55.724;37.612;2022-09-06T22:50:33;9.00;82.40
42095;DHT22;27753;55.724;37.612;2022-09-06T22:52:59;9.10;82.50
42095;DHT22;27753;55.724;37.612;2022-09-06T22:55:25;9.00;82.50
42095;DHT22;27753;55.724;37.612;2022-09-06T22:57:51;9.00;82.50
42095;DHT22;27753;55.724;37.612;2022-09-06T23:00:17;9.00;82.50
42095;DHT22;27753;55.724;37.612;2022-09-06T23:02:43;9.00;82.50
42095;DHT22;27753;55.724;37.612;2022-09-06T23:05:08;9.00;82.80
42095;DHT22;27753;55.724;37.612;2022-09-06T23:07:34;9.00;83.30
42095;DHT22;27753;55.724;37.612;2022-09-06T23:10:00;8.90;83.90
42095;DHT22;27753;55.724;37.612;2022-09-06T23:12:26;8.90;84.30
42095;DHT22;27753;55.724;37.612;2022-09-06T23:14:52;8.80;84.80
42095;DHT22;27753;55.724;37.612;2022-09-06T23:17:18;8.70;85.40
42095;DHT22;27753;55.724;37.612;2022-09-06T23:19:44;8.70;86.10
42095;DHT22;27753;55.724;37.612;2022-09-06T23:22:10;8.60;86.60
42095;DHT22;27753;55.724;37.612;2022-09-06T23:24:36;8.50;87.00
42095;DHT22;27753;55.724;37.612;2022-09-06T23:27:02;8.50;87.20
42095;DHT22;27753;55.724;37.612;2022-09-06T23:29:30;8.40;87.50
42095;DHT22;27753;55.724;37.612;2022-09-06T23:31:56;8.30;87.80
42095;DHT22;27753;55.724;37.612;2022-09-06T23:34:22;8.30;88.20
42095;DHT22;27753;55.724;37.612;2022-09-06T23:36:47;8.30;88.70
42095;DHT22;27753;55.724;37.612;2022-09-06T23:39:13;8.30;89.00
42095;DHT22;27753;55.724;37.612;2022-09-06T23:41:39;8.20;89.20
42095;DHT22;27753;55.724;37.612;2022-09-06T23:44:05;8.30;89.30
42095;DHT22;27753;55.724;37.612;2022-09-06T23:46:31;8.30;89.10
42095;DHT22;27753;55.724;37.612;2022-09-06T23:48:57;8.30;89.10
42095;DHT22;27753;55.724;37.612;2022-09-06T23:51:23;8.30;89.30
42095;DHT22;27753;55.724;37.612;2022-09-06T23:53:49;8.30;89.20
42095;DHT22;27753;55.724;37.612;2022-09-06T23:56:15;8.30;89.40
42095;DHT22;27753;55.724;37.612;2022-09-06T23:58:41;8.30;89.60
